Time;durP1;ratioP1;P1;durP2;ratioP2;P2;SDS_P1;SDS_P2;PMS_P1;PMS_P2;Temp;Humidity;BMP_temperature;BMP_pressure;BME280_temperature;BME280_humidity;BME280_pressure;Samples;Min_cycle;Max_cycle;Signal;HPM_P1;HPM_P2
2023/01/11 00:01:13;;;;;;;59.30;43.10;;;;;;;5.89;73.65;100833.59;108280;1289;22556;-83
2023/01/11 00:04:07;;;;;;;56.30;41.10;;;;;;;5.89;73.73;100832.89;108278;1288;22145;-84
2023/01/11 00:07:28;;;;;;;64.00;43.60;;;;;;;5.89;73.63;100829.09;108259;1287;23012;-81
2023/01/11 00:10:45;;;;;;;55.00;41.10;;;;;;;5.88;73.74;100822.72;108060;1294;22026;-81
2023/01/11 00:13:18;;;;;;;60.90;45.50;;;;;;;5.88;73.70;100816.67;107872;1290;22874;-83
2023/01/11 00:15:52;;;;;;;56.00;45.10;;;;;;;5.87;73.66;100819.96;107706;1293;22575;-80
2023/01/11 00:18:49;;;;;;;59.20;44.70;;;;;;;5.85;73.55;100824.13;108316;1283;22124;-82
2023/01/11 00:21:34;;;;;;;60.80;45.20;;;;;;;5.79;73.53;100821.42;108770;1283;22257;-83
2023/01/11 00:24:39;;;;;;;57.60;42.30;;;;;;;5.77;73.62;100821.61;108728;1279;22075;-83
2023/01/11 00:27:29;;;;;;;66.10;53.20;;;;;;;5.75;73.74;100823.19;109294;1271;22008;-81
2023/01/11 00:30:38;;;;;;;66.70;53.10;;;;;;;5.67;73.69;100823.45;108893;1278;21892;-83
2023/01/11 00:33:40;;;;;;;66.50;51.40;;;;;;;5.58;73.82;100817.67;109089;1278;22013;-81
2023/01/11 00:37:02;;;;;;;71.70;55.10;;;;;;;5.48;73.96;100821.05;109282;1278;23000;-84
2023/01/11 00:40:04;;;;;;;66.70;55.80;;;;;;;5.44;74.03;100826.95;109282;1268;22157;-83
2023/01/11 00:49:30;;;;;;;73.30;57.20;;;;;;;5.44;74.23;100823.85;110677;1265;23638;-83
2023/01/11 00:52:21;;;;;;;75.40;57.60;;;;;;;5.45;74.25;100824.34;110396;1265;21997;-80
2023/01/11 00:55:09;;;;;;;73.50;60.30;;;;;;;5.46;74.22;100824.86;110439;1265;21983;-81
2023/01/11 00:58:05;;;;;;;73.90;62.00;;;;;;;5.44;74.01;100829.55;110581;1265;21980;-82
2023/01/11 01:01:15;;;;;;;79.40;63.80;;;;;;;5.36;73.97;100832.20;110495;1265;23760;-81
2023/01/11 01:04:31;;;;;;;;;;;;;;;;;;;;;
2023/01/11 01:07:07;;;;;;;77.70;63.30;;;;;;;5.28;74.11;100831.06;110141;1269;23145;-80
2023/01/11 01:10:02;;;;;;;81.10;63.80;;;;;;;5.25;74.18;100836.95;110024;1268;22025;-81
2023/01/11 01:16:12;;;;;;;68.50;57.70;;;;;;;5.12;74.49;100843.42;109567;1274;21982;-81
2023/01/11 01:18:52;;;;;;;73.00;59.00;;;;;;;5.10;74.71;100840.52;109308;1274;21987;-81
2023/01/11 01:21:36;;;;;;;73.70;54.60;;;;;;;5.10;74.82;100836.38;109494;1274;22812;-81
2023/01/11 01:24:28;;;;;;;61.30;52.00;;;;;;;5.12;74.84;100831.88;109432;1273;23660;-81
2023/01/11 01:27:14;;;;;;;66.00;48.00;;;;;;;5.13;74.87;100828.42;109381;1273;21978;-81
2023/01/11 01:30:17;;;;;;;52.30;43.20;;;;;;;5.12;74.98;100825.83;109685;1272;22278;-81
2023/01/11 01:33:36;;;;;;;60.80;44.20;;;;;;;5.11;75.04;100825.31;110362;1260;23481;-81
2023/01/11 01:36:39;;;;;;;54.90;44.50;;;;;;;5.12;75.04;100824.10;110637;1254;23093;-81
2023/01/11 01:39:33;;;;;;;49.40;38.60;;;;;;;5.14;75.00;100826.15;110475;1260;23055;-81
2023/01/11 01:42:23;;;;;;;49.10;37.90;;;;;;;5.11;74.97;100825.33;110705;1265;22318;-80
2023/01/11 01:45:38;;;;;;;49.40;39.10;;;;;;;5.11;75.01;100824.64;109729;1269;21995;-80
2023/01/11 01:48:27;;;;;;;49.40;39.30;;;;;;;5.10;75.09;100819.81;109974;1270;22743;-80
2023/01/11 01:51:30;;;;;;;48.20;40.60;;;;;;;5.12;74.98;100821.35;109692;1269;21988;-80
2023/01/11 01:54:44;;;;;;;;;;;;;;;;;;;;;
2023/01/11 02:04:42;;;;;;;46.80;37.40;;;;;;;5.05;75.07;100800.18;110162;1266;21984;-80
2023/01/11 02:07:53;;;;;;;41.40;33.60;;;;;;;5.04;74.98;100797.60;110659;1265;21980;-80
2023/01/11 02:11:05;;;;;;;40.20;34.30;;;;;;;5.00;74.86;100794.20;110694;1265;21981;-79
2023/01/11 02:14:14;;;;;;;48.50;36.00;;;;;;;4.95;74.89;100791.98;110492;1265;23057;-80
2023/01/11 02:17:05;;;;;;;41.80;36.50;;;;;;;4.89;74.69;100787.89;110432;1265;22201;-79
2023/01/11 02:20:30;;;;;;;45.60;37.30;;;;;;;4.82;74.73;100788.98;110392;1265;21994;-80
2023/01/11 02:23:52;;;;;;;44.60;35.30;;;;;;;4.75;74.73;100789.04;110527;1265;21995;-82
2023/01/11 02:26:59;;;;;;;42.80;36.50;;;;;;;4.66;74.93;100786.84;110691;1263;21995;-82
2023/01/11 02:30:40;;;;;;;38.80;33.30;;;;;;;4.59;74.92;100790.67;110580;1265;22027;-81
2023/01/11 02:34:02;;;;;;;41.40;36.00;;;;;;;4.52;74.96;100789.34;109537;1273;23058;-80
2023/01/11 02:38:00;;;;;;;43.50;35.30;;;;;;;4.42;74.91;100789.56;109457;1272;21999;-81
2023/01/11 02:45:00;;;;;;;42.20;33.80;;;;;;;4.32;75.09;100784.45;109114;1278;22017;-80
2023/01/11 02:48:13;;;;;;;43.80;37.50;;;;;;;4.11;75.41;100778.00;109169;1278;21991;-80
2023/01/11 02:51:15;;;;;;;43.50;38.70;;;;;;;3.98;75.36;100777.04;109062;1278;22008;-80
2023/01/11 02:54:15;;;;;;;56.20;48.60;;;;;;;3.93;75.56;100773.27;109112;1278;21954;-80
2023/01/11 02:57:16;;;;;;;53.70;47.90;;;;;;;3.88;75.80;100776.55;108930;1276;22460;-80
2023/01/11 03:00:43;;;;;;;56.40;50.40;;;;;;;3.81;75.84;100780.53;109550;1272;21986;-80
2023/01/11 03:04:07;;;;;;;;;;;;;;;;;;;;;
2023/01/11 03:08:05;;;;;;;57.10;51.00;;;;;;;3.67;76.12;100787.29;109920;1271;21991;-80
2023/01/11 03:16:00;;;;;;;;;;;;;;;;;;;;;
2023/01/11 03:19:50;;;;;;;41.60;35.20;;;;;;;3.42;76.54;100770.98;109460;1274;21949;-82
2023/01/11 03:23:45;;;;;;;;;;;;;;;;;;;;;
2023/01/11 03:27:27;;;;;;;35.70;31.40;;;;;;;3.22;76.74;100753.30;109342;1276;22022;-83
2023/01/11 03:31:37;;;;;;;38.30;32.10;;;;;;;3.16;76.82;100748.66;109495;1271;23618;-84
2023/01/11 03:36:08;;;;;;;;;;;;;;;;;;;;;
2023/01/11 03:39:22;;;;;;;36.70;29.00;;;;;;;3.00;77.02;100738.69;108699;1286;22007;-80
2023/01/11 03:43:09;;;;;;;33.00;28.80;;;;;;;2.98;77.25;100734.05;108497;1285;22001;-81
2023/01/11 03:46:16;;;;;;;29.20;26.00;;;;;;;2.95;77.34;100728.90;108605;1286;22777;-79
2023/01/11 03:49:35;;;;;;;36.60;28.50;;;;;;;2.92;77.48;100727.02;108725;1283;22771;-81
2023/01/11 03:53:05;;;;;;;34.90;28.50;;;;;;;2.89;77.64;100729.59;108455;1289;23737;-81
2023/01/11 03:55:50;;;;;;;;;;;;;;;2.89;77.73;100728.23;108336;1289;23079;-82
2023/01/11 03:58:53;;;;;;;45.10;33.20;;;;;;;2.82;77.73;100729.59;108456;1288;25076;-82
2023/01/11 04:01:33;;;;;;;55.30;44.50;;;;;;;2.79;77.74;100734.23;108448;1283;21984;-81
2023/01/11 04:04:23;;;;;;;38.70;30.50;;;;;;;2.78;77.72;100732.69;108436;1287;22123;-81
2023/01/11 04:07:07;;;;;;;39.20;31.70;;;;;;;2.78;77.67;100729.95;108842;1285;22001;-80
2023/01/11 04:10:11;;;;;;;35.00;30.00;;;;;;;2.76;77.61;100723.05;109017;1275;22292;-79
2023/01/11 04:13:41;;;;;;;33.50;27.90;;;;;;;2.73;77.74;100718.59;109312;1275;23634;-80
2023/01/11 04:17:38;;;;;;;33.40;29.30;;;;;;;2.67;77.77;100713.78;109399;1275;21990;-80
2023/01/11 04:20:47;;;;;;;;;;;;;;;;;;;;;
2023/01/11 04:23:39;;;;;;;33.20;29.50;;;;;;;2.60;77.81;100704.84;110038;1265;21985;-80
2023/01/11 04:27:01;;;;;;;33.10;28.90;;;;;;;2.57;77.90;100707.93;109771;1270;22991;-81
2023/01/11 04:30:01;;;;;;;31.80;27.80;;;;;;;2.54;77.91;100706.04;109329;1270;23601;-80
2023/01/11 04:33:20;;;;;;;36.50;31.40;;;;;;;2.49;77.95;100701.21;109184;1277;22327;-80
2023/01/11 04:36:15;;;;;;;;;;;;;;;;;;;;;
2023/01/11 04:39:27;;;;;;;39.10;30.70;;;;;;;2.44;78.12;100695.54;109209;1267;21984;-80
2023/01/11 04:42:28;;;;;;;37.10;29.70;;;;;;;2.43;78.08;100692.61;109346;1277;21981;-82
2023/01/11 04:45:49;;;;;;;37.00;29.20;;;;;;;2.40;78.05;100685.75;109632;1272;21989;-79
2023/01/11 04:49:25;;;;;;;36.80;32.80;;;;;;;2.32;78.09;100682.30;110302;1266;23101;-79
2023/01/11 04:53:03;;;;;;;;;;;;;;;;;;;;;
2023/01/11 04:55:52;;;;;;;36.90;30.90;;;;;;;2.20;78.22;100676.29;111170;1258;21982;-80
2023/01/11 04:59:07;;;;;;;38.20;31.70;;;;;;;2.18;78.21;100676.96;110568;1264;23148;-79
2023/01/11 05:02:15;;;;;;;42.70;31.40;;;;;;;2.12;78.10;100677.81;110766;1263;22064;-81
2023/01/11 05:05:32;;;;;;;;;;;;;;;;;;;;;
2023/01/11 05:08:57;;;;;;;44.90;33.90;;;;;;;2.07;78.33;100675.40;109836;1269;21954;-80
2023/01/11 05:12:13;;;;;;;50.20;40.70;;;;;;;2.04;78.40;100670.58;109809;1269;23833;-79
2023/01/11 05:15:17;;;;;;;52.60;43.50;;;;;;;2.01;78.46;100665.60;110166;1268;22015;-81
2023/01/11 05:18:07;;;;;;;51.30;39.20;;;;;;;1.99;78.38;100664.22;110211;1265;21975;-80
2023/01/11 05:21:01;;;;;;;50.20;38.90;;;;;;;1.97;78.43;100663.70;109754;1270;21977;-80
2023/01/11 05:23:42;;;;;;;45.10;35.70;;;;;;;1.96;78.45;100661.46;109520;1268;22091;-80
2023/01/11 05:26:31;;;;;;;45.70;37.70;;;;;;;1.94;78.40;100658.88;109648;1272;22002;-79
2023/01/11 05:29:36;;;;;;;;;;;;;;;;;;;;;
2023/01/11 05:32:49;;;;;;;44.10;34.20;;;;;;;1.94;78.55;100650.14;109856;1271;23214;-80
2023/01/11 05:35:35;;;;;;;55.10;35.30;;;;;;;1.93;78.59;100646.19;109866;1268;21978;-81
2023/01/11 05:38:12;;;;;;;48.90;36.70;;;;;;;1.92;78.53;100649.95;110074;1268;22006;-79
2023/01/11 05:41:27;;;;;;;49.60;37.40;;;;;;;1.90;78.59;100652.52;110809;1261;22465;-80
2023/01/11 05:47:04;;;;;;;39.40;33.00;;;;;;;1.85;78.72;100644.79;109368;1272;23711;-80
2023/01/11 05:49:39;;;;;;;44.00;34.00;;;;;;;1.85;78.79;100643.93;109735;1270;23722;-79
2023/01/11 05:52:12;;;;;;;40.40;35.00;;;;;;;1.86;78.76;100640.33;109919;1257;23080;-80
2023/01/11 05:54:50;;;;;;;45.00;37.60;;;;;;;1.86;78.69;100633.46;109751;1267;21978;-78
2023/01/11 05:57:26;;;;;;;42.60;34.10;;;;;;;1.87;78.77;100626.77;109392;1274;21964;-79
2023/01/11 05:59:56;;;;;;;41.30;36.90;;;;;;;1.87;78.84;100623.00;109135;1271;21986;-79
2023/01/11 06:02:38;;;;;;;47.20;37.50;;;;;;;1.83;78.75;100619.21;109891;1268;21978;-79
2023/01/11 06:05:12;;;;;;;35.40;31.30;;;;;;;1.84;78.85;100613.38;109785;1263;21980;-79
2023/01/11 06:08:05;;;;;;;;;;;;;;;;;;;;;
2023/01/11 06:10:48;;;;;;;35.90;31.80;;;;;;;1.76;78.88;100601.02;110472;1263;22440;-79
2023/01/11 06:13:27;;;;;;;35.60;29.30;;;;;;;1.74;78.94;100599.46;110584;1264;22926;-80
2023/01/11 06:16:26;;;;;;;35.30;28.70;;;;;;;1.72;78.91;100600.48;110767;1258;22664;-79
2023/01/11 06:19:23;;;;;;;32.30;28.20;;;;;;;1.69;78.90;100602.19;110806;1245;23027;-80
2023/01/11 06:22:23;;;;;;;35.30;30.80;;;;;;;1.67;78.92;100593.61;111023;1257;21953;-80
2023/01/11 06:25:05;;;;;;;38.30;33.40;;;;;;;1.66;78.86;100586.58;110364;1265;21968;-81
2023/01/11 06:27:43;;;;;;;41.40;31.60;;;;;;;1.66;78.99;100588.63;110697;1263;21975;-80
2023/01/11 06:30:19;;;;;;;41.70;32.60;;;;;;;1.66;78.94;100581.94;110779;1254;23037;-81
2023/01/11 06:33:05;;;;;;;33.50;27.20;;;;;;;1.66;78.91;100579.88;110597;1264;21982;-81
2023/01/11 06:35:41;;;;;;;41.70;29.00;;;;;;;1.63;79.04;100570.44;110564;1265;22564;-79
2023/01/11 06:38:37;;;;;;;32.80;26.10;;;;;;;1.64;79.05;100576.96;110410;1264;22000;-83
2023/01/11 06:41:19;;;;;;;30.90;24.70;;;;;;;1.65;79.06;100574.73;110507;1264;24296;-80
2023/01/11 06:43:57;;;;;;;37.30;27.10;;;;;;;1.67;79.07;100572.16;110474;1264;21967;-80
2023/01/11 06:46:33;;;;;;;39.10;26.80;;;;;;;1.69;79.02;100569.08;110612;1265;22332;-82
2023/01/11 06:49:16;;;;;;;35.80;25.70;;;;;;;1.69;78.97;100570.27;110800;1257;22917;-81
2023/01/11 06:51:55;;;;;;;41.20;28.70;;;;;;;1.69;78.96;100572.16;110732;1263;21972;-80
2023/01/11 06:54:38;;;;;;;37.40;26.80;;;;;;;1.68;78.98;100575.08;110461;1263;21975;-80
2023/01/11 06:57:10;;;;;;;32.00;26.60;;;;;;;1.68;78.95;100576.28;110318;1263;21978;-82
2023/01/11 06:59:47;;;;;;;32.70;26.60;;;;;;;1.68;78.95;100573.71;110444;1256;23037;-81
2023/01/11 07:02:41;;;;;;;30.60;26.60;;;;;;;1.69;78.86;100578.34;110791;1263;23619;-83
2023/01/11 07:05:24;;;;;;;36.60;26.50;;;;;;;1.70;78.88;100579.71;110591;1263;23067;-83
2023/01/11 07:07:58;;;;;;;36.60;27.40;;;;;;;1.71;78.82;100583.32;110506;1263;23640;-82
2023/01/11 07:10:45;;;;;;;36.20;30.70;;;;;;;1.73;78.87;100582.81;110753;1258;22684;-84
2023/01/11 07:13:32;;;;;;;38.90;34.70;;;;;;;1.75;78.92;100583.33;111200;1257;21978;-88
2023/01/11 07:16:03;;;;;;;36.10;32.30;;;;;;;1.79;78.77;100582.66;111113;1257;21986;-85
2023/01/11 07:18:36;;;;;;;42.50;38.00;;;;;;;1.83;78.73;100585.93;110852;1264;21989;-86
2023/01/11 07:21:30;;;;;;;47.20;36.20;;;;;;;1.87;78.74;100585.42;110930;1263;21967;-85
2023/01/11 07:24:05;;;;;;;46.30;38.50;;;;;;;1.89;78.57;100586.45;110915;1263;21940;-86
2023/01/11 07:27:01;;;;;;;49.90;39.00;;;;;;;1.91;78.57;100586.97;110259;1264;21951;-87
2023/01/11 07:29:49;;;;;;;52.10;38.90;;;;;;;1.94;78.44;100589.55;110778;1262;21988;-87
2023/01/11 07:32:21;;;;;;;43.40;36.80;;;;;;;1.97;78.29;100590.41;110394;1263;21980;-79
2023/01/11 07:34:49;;;;;;;53.60;42.60;;;;;;;2.00;78.35;100591.95;110364;1263;23588;-78
2023/01/11 07:37:16;;;;;;;46.00;35.40;;;;;;;2.01;78.15;100587.31;110920;1258;23029;-78
2023/01/11 07:39:56;;;;;;;49.80;34.50;;;;;;;2.01;78.21;100585.09;110687;1259;23714;-78
2023/01/11 07:45:11;;;;;;;42.20;32.50;;;;;;;2.00;77.97;100585.77;110913;1258;23017;-79
2023/01/11 07:47:39;;;;;;;37.70;31.40;;;;;;;2.00;77.92;100584.91;110848;1258;23050;-78
2023/01/11 07:50:08;;;;;;;37.90;32.00;;;;;;;2.00;77.94;100582.17;110773;1258;21967;-78
2023/01/11 07:52:36;;;;;;;40.60;32.30;;;;;;;1.99;77.77;100572.91;110490;1265;23607;-79
2023/01/11 07:55:06;;;;;;;37.60;33.30;;;;;;;1.99;77.76;100567.58;110446;1265;25016;-81
2023/01/11 07:57:33;;;;;;;41.40;32.90;;;;;;;1.99;77.75;100567.40;109778;1269;23654;-81
2023/01/11 08:00:31;;;;;;;39.50;35.10;;;;;;;2.00;77.68;100568.77;110030;1269;22556;-80
2023/01/11 08:03:05;;;;;;;38.30;31.40;;;;;;;2.01;77.88;100574.09;110247;1269;21966;-81
2023/01/11 08:05:39;;;;;;;38.40;31.50;;;;;;;2.07;77.89;100571.70;109618;1274;23066;-81
2023/01/11 08:08:27;;;;;;;37.80;28.90;;;;;;;2.12;77.75;100565.52;109366;1274;21995;-80
2023/01/11 08:16:50;;;;;;;35.90;30.50;;;;;;;2.21;77.51;100561.91;110627;1263;23813;-80
2023/01/11 08:19:24;;;;;;;38.20;29.60;;;;;;;2.24;77.48;100563.64;110390;1264;23091;-79
2023/01/11 08:22:06;;;;;;;39.00;31.40;;;;;;;2.30;77.51;100569.30;110700;1263;23682;-81
2023/01/11 08:24:54;;;;;;;38.80;34.20;;;;;;;2.38;77.41;100574.27;109619;1270;22336;-80
2023/01/11 08:27:43;;;;;;;49.40;38.80;;;;;;;2.43;77.29;100574.61;109912;1269;22005;-82
2023/01/11 08:30:24;;;;;;;45.40;37.30;;;;;;;2.48;77.25;100575.98;110323;1263;23713;-80
2023/01/11 08:33:24;;;;;;;38.90;33.70;;;;;;;2.56;77.04;100575.29;110604;1264;21968;-80
2023/01/11 08:36:23;;;;;;;37.30;31.50;;;;;;;2.64;77.00;100578.38;109925;1267;22001;-81
2023/01/11 08:39:13;;;;;;;36.80;26.50;;;;;;;2.69;76.67;100578.19;110096;1267;22006;-81
2023/01/11 08:41:45;;;;;;;32.20;24.10;;;;;;;2.76;76.59;100580.06;110405;1254;23039;-79
2023/01/11 08:44:23;;;;;;;50.10;34.20;;;;;;;2.83;76.46;100584.17;110892;1261;22050;-79
2023/01/11 08:47:36;;;;;;;49.70;34.70;;;;;;;2.87;76.21;100580.56;110961;1261;22003;-80
2023/01/11 08:50:45;;;;;;;66.80;41.70;;;;;;;2.96;76.07;100577.95;110848;1261;22114;-82
2023/01/11 08:53:24;;;;;;;37.00;26.10;;;;;;;3.06;75.83;100575.01;110782;1259;21988;-80
2023/01/11 08:56:04;;;;;;;58.40;37.20;;;;;;;3.09;75.69;100573.61;110499;1263;23624;-80
2023/01/11 08:58:42;;;;;;;40.20;28.70;;;;;;;3.17;75.63;100573.75;110495;1262;21991;-79
2023/01/11 09:01:19;;;;;;;35.80;27.20;;;;;;;3.25;75.38;100570.80;110732;1262;21994;-81
2023/01/11 09:03:53;;;;;;;32.00;23.70;;;;;;;3.34;75.05;100572.66;110902;1262;24362;-80
2023/01/11 09:06:25;;;;;;;34.20;23.00;;;;;;;3.43;74.64;100572.61;110446;1262;23153;-80
2023/01/11 09:08:54;;;;;;;32.70;21.40;;;;;;;3.48;74.09;100570.86;110412;1262;22003;-80
2023/01/11 09:14:17;;;;;;;29.20;23.40;;;;;;;3.65;74.30;100574.38;110941;1258;21961;-79
2023/01/11 09:16:45;;;;;;;33.10;22.20;;;;;;;3.77;74.03;100569.31;110765;1264;23605;-79
2023/01/11 09:19:16;;;;;;;29.70;22.40;;;;;;;3.87;73.67;100559.42;110547;1264;22039;-80
2023/01/11 09:21:45;;;;;;;30.30;21.10;;;;;;;3.93;72.92;100552.85;110723;1262;21995;-80
2023/01/11 09:24:15;;;;;;;28.70;21.60;;;;;;;3.99;72.57;100548.15;110802;1264;21934;-79
2023/01/11 09:26:46;;;;;;;27.80;20.90;;;;;;;4.04;72.32;100538.30;110395;1255;23049;-79
2023/01/11 09:29:47;;;;;;;;;;;;;;;;;;;;;
2023/01/11 09:32:29;;;;;;;29.30;21.40;;;;;;;4.15;72.04;100543.40;109943;1270;21997;-80
2023/01/11 09:35:26;;;;;;;33.40;23.70;;;;;;;4.23;72.02;100535.56;110037;1267;21974;-80
2023/01/11 09:38:36;;;;;;;27.90;20.00;;;;;;;4.29;71.07;100529.30;110294;1266;21983;-79
2023/01/11 09:41:48;;;;;;;26.70;20.60;;;;;;;4.34;70.78;100526.68;109878;1266;21973;-80
2023/01/11 09:44:24;;;;;;;26.20;19.90;;;;;;;4.39;70.62;100521.46;110154;1267;21995;-80
2023/01/11 09:47:16;;;;;;;27.10;19.10;;;;;;;4.50;70.57;100518.09;110272;1263;23685;-81
2023/01/11 09:49:55;;;;;;;25.80;18.00;;;;;;;4.62;70.56;100508.81;108447;1266;1432528;-80
2023/01/11 09:52:42;;;;;;;26.10;18.10;;;;;;;4.73;69.98;100505.60;110403;1254;22018;-80
2023/01/11 09:55:23;;;;;;;22.80;18.20;;;;;;;4.86;69.91;100504.59;109918;1266;23591;-80
2023/01/11 09:58:27;;;;;;;22.10;15.80;;;;;;;4.98;69.38;100505.30;110045;1266;22897;-80
2023/01/11 10:01:09;;;;;;;29.10;18.80;;;;;;;5.04;68.59;100496.59;110417;1266;23608;-80
2023/01/11 10:04:14;;;;;;;23.90;16.50;;;;;;;5.13;68.73;100489.92;110418;1266;23802;-79
2023/01/11 10:07:17;;;;;;;28.60;18.40;;;;;;;5.24;68.64;100484.61;110301;1263;22048;-79
2023/01/11 10:10:06;;;;;;;22.40;16.90;;;;;;;5.43;68.67;100483.48;110998;1258;23019;-78
2023/01/11 10:13:44;;;;;;;22.80;16.50;;;;;;;5.58;68.22;100475.66;110901;1258;23715;-79
2023/01/11 10:17:03;;;;;;;24.60;17.30;;;;;;;5.64;67.32;100468.33;110818;1258;21966;-79
2023/01/11 10:20:22;;;;;;;26.10;17.40;;;;;;;5.69;66.83;100460.46;110909;1258;21970;-79
2023/01/11 10:23:07;;;;;;;21.50;14.70;;;;;;;5.73;66.32;100456.44;110931;1258;22005;-79
2023/01/11 10:25:53;;;;;;;22.80;15.60;;;;;;;5.77;65.35;100458.95;110890;1258;21973;-78
2023/01/11 10:28:41;;;;;;;20.70;14.40;;;;;;;5.76;64.94;100459.32;110654;1258;22970;-80
2023/01/11 10:40:36;;;;;;;21.50;13.30;;;;;;;6.04;64.26;100434.52;110140;1265;21996;-78
2023/01/11 10:43:21;;;;;;;20.30;13.20;;;;;;;6.11;64.26;100426.10;110272;1265;21979;-78
2023/01/11 10:46:09;;;;;;;17.60;11.90;;;;;;;6.18;63.43;100425.28;110129;1265;22016;-77
2023/01/11 10:48:44;;;;;;;17.00;11.20;;;;;;;6.22;62.84;100417.96;110266;1264;22102;-78
2023/01/11 10:51:23;;;;;;;21.80;13.60;;;;;;;6.26;62.92;100415.81;109932;1265;22032;-77
2023/01/11 10:54:16;;;;;;;24.30;14.40;;;;;;;6.29;62.70;100407.64;110536;1263;21967;-77
2023/01/11 10:57:54;;;;;;;23.80;15.10;;;;;;;6.40;62.93;100410.02;110463;1263;22036;-79
2023/01/11 11:00:37;;;;;;;21.40;14.30;;;;;;;6.51;62.39;100405.29;110868;1259;22016;-78
2023/01/11 11:03:44;;;;;;;26.80;17.50;;;;;;;6.64;61.73;100400.88;110522;1262;22083;-79
2023/01/11 11:06:27;;;;;;;24.90;15.90;;;;;;;6.71;60.96;100402.63;110869;1260;22099;-78
2023/01/11 11:09:39;;;;;;;26.90;19.90;;;;;;;6.89;61.58;100394.48;110721;1263;21978;-78
2023/01/11 11:12:29;;;;;;;23.60;17.30;;;;;;;7.22;61.59;100385.41;110483;1257;22848;-78
2023/01/11 11:15:18;;;;;;;21.60;12.30;;;;;;;7.49;61.07;100379.92;110927;1257;21980;-76
2023/01/11 11:17:51;;;;;;;;;;;;;;;7.62;59.91;100370.77;110811;1257;23571;-77
2023/01/11 11:20:24;;;;;;;18.80;11.70;;;;;;;7.63;59.93;100367.97;110899;1257;21971;-77
2023/01/11 11:23:01;;;;;;;19.10;12.20;;;;;;;7.60;59.38;100365.61;110564;1262;24368;-78
2023/01/11 11:25:36;;;;;;;19.70;12.20;;;;;;;7.47;58.68;100361.09;110665;1262;22130;-78
2023/01/11 11:28:14;;;;;;;18.20;11.20;;;;;;;7.38;58.93;100356.13;110585;1261;21976;-78
2023/01/11 11:30:46;;;;;;;18.60;12.40;;;;;;;7.38;59.40;100346.09;110566;1262;21965;-77
2023/01/11 11:33:36;;;;;;;20.20;13.50;;;;;;;7.38;59.35;100343.31;110594;1262;23667;-77
2023/01/11 11:36:13;;;;;;;18.70;12.20;;;;;;;7.35;59.29;100340.77;110599;1262;23026;-79
2023/01/11 11:39:01;;;;;;;18.00;12.30;;;;;;;7.33;59.15;100336.16;110480;1262;21956;-78
2023/01/11 11:41:46;;;;;;;19.80;14.40;;;;;;;7.31;58.94;100319.79;110813;1257;21991;-78
2023/01/11 11:44:27;;;;;;;26.50;17.60;;;;;;;7.22;58.79;100312.89;110858;1257;21980;-78
2023/01/11 11:47:11;;;;;;;36.30;23.00;;;;;;;7.17;59.14;100301.95;110173;1263;22895;-78
2023/01/11 11:49:42;;;;;;;32.50;19.30;;;;;;;7.14;59.12;100302.20;110477;1263;21976;-77
2023/01/11 11:52:16;;;;;;;22.40;15.80;;;;;;;7.06;59.06;100303.27;110622;1263;21978;-77
2023/01/11 11:55:03;;;;;;;31.50;21.80;;;;;;;6.96;59.20;100304.16;110219;1260;21981;-78
2023/01/11 11:57:49;;;;;;;29.00;18.50;;;;;;;6.90;59.35;100301.21;110454;1265;22001;-78
2023/01/11 12:00:30;;;;;;;23.00;14.40;;;;;;;6.86;59.57;100296.61;109547;1269;23192;-78
2023/01/11 12:03:13;;;;;;;28.80;15.60;;;;;;;6.81;59.67;100288.95;109570;1270;22061;-79
2023/01/11 12:06:21;;;;;;;27.40;16.40;;;;;;;6.81;59.99;100283.92;109396;1270;22592;-78
2023/01/11 12:09:02;;;;;;;20.60;14.00;;;;;;;6.80;59.88;100280.14;109710;1270;21997;-79
2023/01/11 12:11:41;;;;;;;25.60;15.90;;;;;;;6.80;59.89;100270.80;109081;1274;22004;-79
2023/01/11 12:14:47;;;;;;;19.00;12.70;;;;;;;6.79;59.91;100266.34;108880;1279;22523;-81
2023/01/11 12:17:24;;;;;;;24.50;15.60;;;;;;;6.73;59.88;100261.48;108718;1278;22927;-79
2023/01/11 12:20:17;;;;;;;21.30;13.80;;;;;;;6.73;59.95;100261.48;108720;1279;22011;-80
2023/01/11 12:23:25;;;;;;;;;;;;;;;;;;;;;
2023/01/11 12:27:22;;;;;;;23.90;14.90;;;;;;;6.66;60.19;100257.48;109268;1268;21991;-80
2023/01/11 12:30:37;;;;;;;26.50;16.80;;;;;;;6.63;60.18;100261.36;109867;1270;21981;-79
2023/01/11 12:33:40;;;;;;;24.30;16.00;;;;;;;6.60;60.12;100261.24;109877;1265;22254;-81
2023/01/11 12:36:36;;;;;;;20.30;15.30;;;;;;;6.58;60.28;100258.01;110950;1258;21972;-80
2023/01/11 12:39:45;;;;;;;22.10;14.30;;;;;;;6.53;60.28;100246.02;110815;1258;23029;-79
2023/01/11 12:43:06;;;;;;;25.90;16.90;;;;;;;6.51;60.34;100243.48;110840;1258;22115;-79
2023/01/11 12:45:54;;;;;;;29.20;18.40;;;;;;;6.49;60.41;100248.55;109651;1270;21990;-79
2023/01/11 12:48:58;;;;;;;33.90;22.70;;;;;;;6.50;60.42;100242.98;109037;1276;22010;-79
2023/01/11 12:52:42;;;;;;;25.80;18.30;;;;;;;6.48;60.56;100237.66;109145;1276;23113;-80
2023/01/11 12:55:45;;;;;;;24.40;19.30;;;;;;;6.42;60.45;100237.63;108784;1282;22250;-79
2023/01/11 12:58:48;;;;;;;22.80;17.50;;;;;;;6.40;60.60;100234.21;108121;1290;22005;-78
2023/01/11 13:01:47;;;;;;;24.10;18.20;;;;;;;6.38;60.72;100227.16;107927;1291;22006;-78
2023/01/11 13:05:05;;;;;;;31.60;21.40;;;;;;;6.35;60.80;100228.97;108276;1289;22026;-79
2023/01/11 13:07:50;;;;;;;30.80;21.20;;;;;;;6.34;60.94;100226.55;108444;1286;22061;-79
2023/01/11 13:10:49;;;;;;;32.70;20.50;;;;;;;6.35;60.97;100227.23;108679;1283;22756;-81
2023/01/11 13:14:07;;;;;;;34.50;21.20;;;;;;;6.37;61.22;100220.27;108823;1277;23676;-78
2023/01/11 13:17:26;;;;;;;32.60;19.30;;;;;;;6.36;61.21;100226.70;108444;1286;23776;-79
2023/01/11 13:20:27;;;;;;;35.90;21.70;;;;;;;6.30;61.34;100234.61;108381;1287;22076;-79
2023/01/11 13:23:53;;;;;;;31.10;21.00;;;;;;;6.24;61.14;100234.04;108714;1281;23833;-79
2023/01/11 13:26:51;;;;;;;32.50;22.40;;;;;;;6.21;61.40;100230.48;109339;1274;22452;-79
2023/01/11 13:29:41;;;;;;;25.10;18.20;;;;;;;6.24;61.63;100225.75;109397;1273;23040;-79
2023/01/11 13:32:26;;;;;;;26.90;18.20;;;;;;;6.24;61.72;100224.02;109557;1264;21975;-80
2023/01/11 13:35:44;;;;;;;31.10;25.50;;;;;;;6.23;61.65;100221.95;110601;1258;23813;-79
2023/01/11 13:38:57;;;;;;;25.60;18.80;;;;;;;6.22;61.80;100220.27;110310;1264;23618;-79
2023/01/11 13:41:50;;;;;;;30.30;22.10;;;;;;;6.19;61.96;100219.47;110377;1265;23034;-79
2023/01/11 13:45:01;;;;;;;28.70;19.90;;;;;;;6.16;61.97;100217.28;110311;1264;22491;-78
2023/01/11 13:47:52;;;;;;;27.10;20.00;;;;;;;6.13;62.05;100208.20;110493;1263;23609;-78
2023/01/11 13:50:34;;;;;;;27.60;21.60;;;;;;;6.13;62.16;100210.44;110557;1263;23719;-81
2023/01/11 13:53:21;;;;;;;25.70;20.60;;;;;;;6.12;62.21;100205.30;110778;1263;23409;-80
2023/01/11 13:56:10;;;;;;;31.30;22.10;;;;;;;6.11;62.28;100203.40;110430;1258;23586;-77
2023/01/11 13:58:57;;;;;;;30.10;22.60;;;;;;;6.13;62.48;100201.98;110867;1257;23586;-78
2023/01/11 14:02:09;;;;;;;31.20;22.80;;;;;;;6.11;62.40;100199.78;110980;1257;22715;-79
2023/01/11 14:05:57;;;;;;;31.70;25.40;;;;;;;6.02;62.64;100199.27;110265;1267;23675;-80
2023/01/11 14:09:52;;;;;;;37.10;24.10;;;;;;;5.96;62.76;100191.28;109920;1267;23599;-78
2023/01/11 14:13:00;;;;;;;37.50;24.30;;;;;;;5.93;62.94;100184.41;109091;1274;22863;-77
2023/01/11 14:15:33;;;;;;;41.30;26.00;;;;;;;5.93;63.09;100183.55;109296;1274;24460;-77
2023/01/11 14:18:27;;;;;;;35.00;25.90;;;;;;;5.96;63.01;100180.73;109289;1272;22521;-77
2023/01/11 14:21:08;;;;;;;29.30;21.60;;;;;;;5.98;63.19;100183.81;108837;1278;22002;-77
2023/01/11 14:23:53;;;;;;;28.70;22.10;;;;;;;5.97;63.08;100181.59;108699;1278;23049;-77
2023/01/11 14:26:58;;;;;;;33.50;24.60;;;;;;;5.98;63.26;100176.56;108860;1278;23210;-77
2023/01/11 14:29:57;;;;;;;31.30;23.50;;;;;;;5.93;63.32;100174.41;108826;1278;23737;-78
2023/01/11 14:33:17;;;;;;;30.20;24.60;;;;;;;5.88;63.26;100165.50;108794;1276;24315;-79